Time;durP1;ratioP1;P1;durP2;ratioP2;P2;SDS_P1;SDS_P2;PMS_P1;PMS_P2;Temp;Humidity;BMP_temperature;BMP_pressure;BME280_temperature;BME280_humidity;BME280_pressure;Samples;Min_cycle;Max_cycle;Signal;HPM_P1;HPM_P2
2022/05/24 05:03:33;;;;;;;3.28;0.82;;;17.10;99.90;;;;;;6199985;23;20033;-79
2022/05/24 05:05:58;;;;;;;3.65;0.63;;;17.20;99.90;;;;;;6226972;23;20001;-80
2022/05/24 05:08:25;;;;;;;1.75;0.60;;;17.20;99.90;;;;;;6204853;23;20008;-79
2022/05/24 05:10:51;;;;;;;1.65;0.60;;;17.30;99.90;;;;;;6206807;23;20036;-80
2022/05/24 05:13:17;;;;;;;4.20;1.08;;;17.40;99.90;;;;;;6235798;23;20075;-79
2022/05/24 05:15:44;;;;;;;2.50;0.70;;;17.60;99.90;;;;;;6176708;23;20016;-79
2022/05/24 05:18:18;;;;;;;2.20;0.70;;;17.70;99.90;;;;;;6200073;23;20202;-83
2022/05/24 05:20:44;;;;;;;3.25;0.68;;;17.70;99.90;;;;;;6200452;23;20059;-79
2022/05/24 05:23:14;;;;;;;2.15;0.80;;;17.80;99.90;;;;;;6174372;23;20004;-79
2022/05/24 05:25:42;;;;;;;2.80;0.60;;;17.70;99.90;;;;;;6225322;23;19997;-79
2022/05/24 05:28:08;;;;;;;1.58;0.60;;;17.60;99.90;;;;;;6225090;23;20000;-79
2022/05/24 05:33:18;;;;;;;2.05;0.70;;;17.70;99.90;;;;;;6198871;23;20139;-80
2022/05/24 05:35:46;;;;;;;1.90;0.77;;;17.80;99.90;;;;;;6200042;23;20000;-80
2022/05/24 05:38:13;;;;;;;2.63;0.50;;;18.00;99.90;;;;;;6223363;23;20008;-81
2022/05/24 05:40:39;;;;;;;1.13;0.55;;;18.20;99.90;;;;;;6199468;23;20240;-81
2022/05/24 05:43:05;;;;;;;2.92;0.60;;;18.30;99.90;;;;;;6163302;23;20035;-82
2022/05/24 05:45:31;;;;;;;4.13;0.82;;;18.50;99.90;;;;;;6162807;23;20012;-81
2022/05/24 05:47:57;;;;;;;3.33;0.90;;;18.50;99.80;;;;;;6139239;23;19998;-82
2022/05/24 05:50:30;;;;;;;3.10;0.77;;;18.70;99.60;;;;;;6164850;23;20001;-82
2022/05/24 05:53:03;;;;;;;2.55;0.70;;;18.80;98.70;;;;;;6115059;23;20009;-82
2022/05/24 05:55:30;;;;;;;3.22;0.60;;;18.90;98.70;;;;;;6139195;23;20064;-81
2022/05/24 05:57:56;;;;;;;5.47;1.42;;;19.00;97.90;;;;;;6161552;23;20240;-82
2022/05/24 06:00:22;;;;;;;3.15;0.70;;;19.10;97.50;;;;;;6161301;23;20049;-83
2022/05/24 06:02:48;;;;;;;3.17;0.60;;;19.10;97.10;;;;;;6160626;23;20013;-81
2022/05/24 06:05:14;;;;;;;2.40;0.68;;;19.00;96.60;;;;;;6135428;23;20461;-81
2022/05/24 06:07:40;;;;;;;2.05;0.85;;;18.90;96.30;;;;;;6132741;23;20005;-81
2022/05/24 06:10:11;;;;;;;2.78;0.70;;;18.80;96.30;;;;;;6160166;23;20048;-82
2022/05/24 06:12:36;;;;;;;2.58;0.68;;;18.90;96.30;;;;;;6135534;23;20219;-81
2022/05/24 06:15:03;;;;;;;3.08;0.60;;;19.00;95.90;;;;;;6187619;23;20005;-83
2022/05/24 06:17:29;;;;;;;1.45;0.70;;;19.20;94.60;;;;;;6192872;23;20097;-81
2022/05/24 06:19:59;;;;;;;5.60;0.80;;;19.40;94.80;;;;;;6190127;23;20020;-81
2022/05/24 06:22:25;;;;;;;3.38;0.50;;;19.50;94.10;;;;;;6191534;23;20007;-81
2022/05/24 06:24:51;;;;;;;2.10;0.50;;;19.60;93.80;;;;;;6191977;23;20001;-81
2022/05/24 06:27:21;;;;;;;2.08;0.60;;;19.70;93.40;;;;;;6166459;23;20005;-81
2022/05/24 06:29:47;;;;;;;2.28;0.50;;;19.70;93.20;;;;;;6167267;23;20001;-81
2022/05/24 06:32:13;;;;;;;2.42;0.52;;;19.70;93.10;;;;;;6165006;23;20017;-82
2022/05/24 06:34:39;;;;;;;1.92;0.50;;;19.70;92.70;;;;;;6192818;23;20306;-82
2022/05/24 06:37:05;;;;;;;2.83;0.65;;;19.50;92.70;;;;;;6165462;23;20191;-81
2022/05/24 06:39:31;;;;;;;2.58;0.50;;;19.50;92.70;;;;;;6192478;23;20057;-81
2022/05/24 06:41:57;;;;;;;2.65;0.70;;;19.60;92.90;;;;;;6164942;23;20031;-81
2022/05/24 06:44:27;;;;;;;2.33;0.50;;;19.50;92.70;;;;;;6165669;23;20199;-81
2022/05/24 06:46:54;;;;;;;2.78;0.73;;;19.60;92.90;;;;;;6191085;23;20028;-81
2022/05/24 06:49:20;;;;;;;1.75;0.55;;;19.80;92.90;;;;;;6191963;23;19997;-80
2022/05/24 06:51:45;;;;;;;1.40;0.50;;;19.80;92.20;;;;;;6165501;23;20007;-81
2022/05/24 06:54:11;;;;;;;1.77;0.60;;;19.90;92.10;;;;;;6141172;23;20013;-81
2022/05/24 06:56:37;;;;;;;2.90;0.50;;;19.80;92.20;;;;;;6190171;23;20020;-80
2022/05/24 07:02:27;;;;;;;2.97;0.82;;;19.50;92.70;;;;;;6192872;23;20048;-80
2022/05/24 07:05:12;;;;;;;4.78;0.90;;;19.40;92.60;;;;;;6165295;23;20016;-81
2022/05/24 07:07:43;;;;;;;1.40;0.50;;;19.30;92.70;;;;;;6148075;23;20026;-80
2022/05/24 07:10:12;;;;;;;2.10;0.20;;;19.30;92.90;;;;;;6106298;23;20060;-80
2022/05/24 07:12:38;;;;;;;2.10;0.32;;;18.90;90.10;;;;;;6082430;23;20082;-79
2022/05/24 07:15:04;;;;;;;1.88;0.30;;;17.60;94.40;;;;;;6130779;23;20006;-79
2022/05/24 07:17:30;;;;;;;5.28;0.60;;;14.70;99.90;;;;;;6131826;23;20092;-79
2022/05/24 07:19:56;;;;;;;2.15;0.40;;;13.40;99.90;;;;;;6142378;23;20276;-79
2022/05/24 07:22:22;;;;;;;2.03;0.40;;;12.80;99.90;;;;;;6132163;23;20057;-78
2022/05/24 07:24:49;;;;;;;2.15;0.50;;;12.50;99.90;;;;;;6106589;23;20078;-79
2022/05/24 07:27:17;;;;;;;3.00;0.63;;;12.40;99.90;;;;;;6155447;23;19994;-80
2022/05/24 07:29:44;;;;;;;4.65;1.20;;;12.40;99.90;;;;;;6131983;23;20183;-79
2022/05/24 07:32:10;;;;;;;5.85;0.88;;;12.70;99.90;;;;;;6129284;23;20010;-77
2022/05/24 07:34:36;;;;;;;1.20;0.40;;;12.60;99.90;;;;;;6132500;23;20009;-78
2022/05/24 07:37:05;;;;;;;2.30;0.70;;;12.50;99.90;;;;;;6131739;23;20010;-79
2022/05/24 07:39:31;;;;;;;2.88;1.05;;;12.50;99.90;;;;;;6128192;23;20002;-78
2022/05/24 07:47:35;;;;;;;2.42;0.70;;;12.90;99.90;;;;;;6117414;23;20456;-77
2022/05/24 07:50:02;;;;;;;2.35;0.60;;;13.00;99.90;;;;;;6130617;23;19998;-77
2022/05/24 07:52:28;;;;;;;3.85;0.50;;;13.10;99.90;;;;;;6129793;23;20029;-78
2022/05/24 07:54:53;;;;;;;2.50;0.60;;;13.30;99.90;;;;;;6130073;23;20050;-78
2022/05/24 07:57:20;;;;;;;2.92;0.47;;;13.30;99.90;;;;;;6105589;23;20303;-78
2022/05/24 07:59:47;;;;;;;2.13;0.70;;;13.30;99.90;;;;;;6105535;23;19998;-77
2022/05/24 08:02:19;;;;;;;1.75;0.50;;;13.40;99.90;;;;;;6129503;23;20029;-77
2022/05/24 08:04:45;;;;;;;1.48;0.50;;;13.70;99.90;;;;;;6131272;23;20104;-78
2022/05/24 08:07:11;;;;;;;1.23;0.30;;;13.90;99.90;;;;;;6130538;23;20009;-79
2022/05/24 08:09:37;;;;;;;1.80;0.40;;;14.20;99.90;;;;;;6130901;23;20259;-77
2022/05/24 08:12:03;;;;;;;3.08;0.50;;;14.50;99.90;;;;;;6128924;23;20061;-77
2022/05/24 08:14:29;;;;;;;0.57;0.20;;;14.60;99.90;;;;;;6130688;23;20048;-77
2022/05/24 08:16:55;;;;;;;2.00;0.35;;;14.60;99.90;;;;;;6104042;23;20014;-77
2022/05/24 08:19:21;;;;;;;2.05;0.45;;;14.70;99.90;;;;;;6129733;23;20009;-77
2022/05/24 08:21:47;;;;;;;1.65;0.63;;;14.70;99.90;;;;;;6131231;23;20343;-80
2022/05/24 08:24:15;;;;;;;1.75;0.50;;;14.70;99.90;;;;;;6129835;23;20141;-77
2022/05/24 08:26:40;;;;;;;2.65;0.40;;;15.20;99.90;;;;;;6130639;23;20006;-78
2022/05/24 08:29:06;;;;;;;1.20;0.30;;;15.20;99.90;;;;;;6104197;23;20002;-77
2022/05/24 08:31:32;;;;;;;1.40;0.40;;;14.80;99.90;;;;;;6130321;23;20097;-77
2022/05/24 08:33:58;;;;;;;1.92;0.60;;;14.90;99.90;;;;;;6132311;23;20002;-77
2022/05/24 08:36:24;;;;;;;1.60;0.35;;;15.40;99.90;;;;;;6133296;23;19986;-77
2022/05/24 08:38:49;;;;;;;1.73;0.30;;;16.10;99.90;;;;;;6132729;23;20014;-77
2022/05/24 08:41:29;;;;;;;2.30;0.32;;;16.20;99.90;;;;;;6132203;23;20008;-78
2022/05/24 08:49:56;;;;;;;3.05;0.30;;;17.30;99.90;;;;;;6132356;23;20002;-79
2022/05/24 08:52:25;;;;;;;1.08;0.20;;;17.70;99.70;;;;;;6131263;23;20006;-78
2022/05/24 08:54:53;;;;;;;0.63;0.25;;;17.90;97.60;;;;;;6107274;23;19993;-77
2022/05/24 08:57:34;;;;;;;1.17;0.20;;;18.10;95.30;;;;;;6132936;23;20010;-79
2022/05/24 09:00:11;;;;;;;1.95;0.40;;;18.10;95.40;;;;;;6106483;23;20018;-78
2022/05/24 09:02:44;;;;;;;1.52;0.22;;;18.00;94.10;;;;;;6162030;23;20209;-78
2022/05/24 09:05:24;;;;;;;1.20;0.20;;;18.30;95.20;;;;;;6162650;23;20012;-79
2022/05/24 09:07:59;;;;;;;0.70;0.20;;;18.40;92.30;;;;;;6162232;23;20069;-78
2022/05/24 09:10:34;;;;;;;0.77;0.30;;;18.70;91.30;;;;;;6160979;23;20291;-78
2022/05/24 09:13:25;;;;;;;1.35;0.30;;;18.90;90.90;;;;;;6134954;23;20035;-77
2022/05/24 09:16:08;;;;;;;2.20;0.30;;;19.00;90.10;;;;;;6151316;23;20073;-78
2022/05/24 09:18:49;;;;;;;1.20;0.20;;;19.10;90.10;;;;;;6132802;23;20029;-77
2022/05/24 09:21:37;;;;;;;0.50;0.13;;;19.20;90.10;;;;;;6106038;23;20058;-78
2022/05/24 09:24:17;;;;;;;0.65;0.17;;;19.40;89.70;;;;;;6130854;23;20196;-77
2022/05/24 09:27:07;;;;;;;1.23;0.30;;;19.40;87.40;;;;;;6132064;23;20006;-78
2022/05/24 09:29:35;;;;;;;1.63;0.32;;;19.40;86.60;;;;;;6106562;23;20280;-80
2022/05/24 09:32:08;;;;;;;1.98;0.30;;;19.80;87.00;;;;;;6131305;23;20017;-80
2022/05/24 09:34:36;;;;;;;1.30;0.28;;;19.90;86.70;;;;;;6136424;23;20006;-81
2022/05/24 09:37:04;;;;;;;;;;;19.40;85.40;;;;;;6138062;23;19994;-79
2022/05/24 09:39:36;;;;;;;1.23;0.17;;;19.30;86.70;;;;;;6137137;23;19911;-79
2022/05/24 09:42:23;;;;;;;0.47;0.15;;;19.50;85.60;;;;;;6115599;23;20081;-80
2022/05/24 09:44:58;;;;;;;1.67;0.25;;;19.60;85.00;;;;;;6137638;23;20006;-78
2022/05/24 09:47:27;;;;;;;0.73;0.22;;;19.70;83.40;;;;;;6083332;23;20330;-80
2022/05/24 09:49:54;;;;;;;2.25;0.20;;;19.80;84.10;;;;;;6105070;23;20010;-79
2022/05/24 09:52:20;;;;;;;1.42;0.20;;;19.80;83.20;;;;;;6106795;23;20002;-79
2022/05/24 09:55:04;;;;;;;0.95;0.10;;;19.80;83.60;;;;;;6133226;23;20129;-79
2022/05/24 09:57:32;;;;;;;2.53;0.20;;;20.00;82.90;;;;;;6132231;23;20074;-80
2022/05/24 10:00:23;;;;;;;1.92;0.20;;;20.20;82.50;;;;;;6132418;23;20010;-79
2022/05/24 10:03:08;;;;;;;1.77;0.20;;;20.40;80.20;;;;;;6141774;23;20029;-78
2022/05/24 10:05:35;;;;;;;3.22;0.40;;;19.80;79.90;;;;;;6193067;23;20005;-78
2022/05/24 10:08:14;;;;;;;1.88;0.40;;;19.60;82.20;;;;;;6140710;23;20009;-78
2022/05/24 10:10:41;;;;;;;;;;;19.80;81.40;;;;;;6142081;23;20009;-79
2022/05/24 10:13:13;;;;;;;1.38;0.57;;;20.20;79.10;;;;;;6165288;23;19959;-79
2022/05/24 10:16:17;;;;;;;1.42;0.25;;;20.30;77.30;;;;;;6191426;23;20378;-79
2022/05/24 10:19:20;;;;;;;2.45;0.43;;;20.30;78.10;;;;;;6159659;23;20025;-78
2022/05/24 10:22:02;;;;;;;1.85;0.30;;;20.10;79.50;;;;;;6165997;23;20012;-79
2022/05/24 10:24:47;;;;;;;1.63;0.20;;;20.30;77.90;;;;;;6192026;23;20036;-78
2022/05/24 10:27:25;;;;;;;1.05;0.25;;;19.80;76.50;;;;;;6165397;23;20268;-77
2022/05/24 10:30:13;;;;;;;0.70;0.25;;;19.60;78.20;;;;;;6191991;23;20005;-78
2022/05/24 10:39:02;;;;;;;1.35;0.10;;;19.60;75.30;;;;;;6190754;23;20306;-77
2022/05/24 10:42:01;;;;;;;1.10;0.10;;;19.70;75.70;;;;;;6165722;23;20006;-79
2022/05/24 10:44:37;;;;;;;1.35;0.20;;;20.10;74.60;;;;;;6192259;23;20032;-78
2022/05/24 10:47:16;;;;;;;0.70;0.20;;;20.30;73.20;;;;;;6190686;23;20013;-80
2022/05/24 10:50:01;;;;;;;1.65;0.20;;;20.50;73.80;;;;;;6140708;23;20009;-79
2022/05/24 10:52:56;;;;;;;1.10;0.20;;;20.60;73.80;;;;;;6191646;23;20012;-78
2022/05/24 10:55:31;;;;;;;1.33;0.20;;;20.60;74.50;;;;;;6164436;23;20027;-78
2022/05/24 10:58:01;;;;;;;2.60;0.40;;;20.80;74.60;;;;;;6163993;23;20024;-79
2022/05/24 11:00:36;;;;;;;2.17;0.57;;;21.10;74.40;;;;;;6163542;23;20096;-78
2022/05/24 11:03:12;;;;;;;3.10;0.40;;;21.30;71.40;;;;;;6164042;23;20210;-78
2022/05/24 11:05:38;;;;;;;1.50;0.30;;;21.50;71.60;;;;;;6164421;23;20170;-77
2022/05/24 11:08:19;;;;;;;1.52;0.30;;;21.50;71.50;;;;;;6189845;23;19989;-78
2022/05/24 11:10:48;;;;;;;0.40;0.10;;;21.80;71.10;;;;;;6190503;23;20001;-79
2022/05/24 11:13:42;;;;;;;1.30;0.22;;;21.60;69.90;;;;;;6190185;23;19985;-78
2022/05/24 11:16:18;;;;;;;1.23;0.30;;;21.80;70.50;;;;;;6169749;23;20013;-78
2022/05/24 11:18:44;;;;;;;2.88;0.28;;;22.20;70.30;;;;;;6164213;23;20043;-78
2022/05/24 11:21:18;;;;;;;2.00;0.30;;;22.30;68.60;;;;;;6163858;23;19997;-78
2022/05/24 11:24:15;;;;;;;1.27;0.30;;;22.70;69.90;;;;;;6164597;23;20052;-77
2022/05/24 11:26:52;;;;;;;1.08;0.20;;;23.10;68.40;;;;;;6191109;23;20009;-78
2022/05/24 11:29:29;;;;;;;1.65;0.20;;;22.90;67.60;;;;;;6164182;23;20304;-78
2022/05/24 11:32:05;;;;;;;1.25;0.20;;;22.80;68.50;;;;;;6162570;23;20029;-79
2022/05/24 11:34:34;;;;;;;2.40;0.60;;;22.60;68.90;;;;;;6164478;23;20060;-81
2022/05/24 11:37:05;;;;;;;1.98;0.35;;;22.10;69.50;;;;;;6189826;23;20222;-79
2022/05/24 11:39:37;;;;;;;1.05;0.17;;;22.90;68.60;;;;;;6191146;23;20013;-79
2022/05/24 11:42:36;;;;;;;1.95;0.22;;;24.20;66.00;;;;;;6163583;23;20065;-78
2022/05/24 11:45:31;;;;;;;7.53;0.55;;;25.50;64.00;;;;;;6163545;23;20275;-79
2022/05/24 11:48:06;;;;;;;1.55;0.20;;;25.00;63.50;;;;;;6164050;23;20043;-78
2022/05/24 11:50:35;;;;;;;1.75;0.30;;;24.20;65.10;;;;;;6164466;23;20267;-80
2022/05/24 11:53:07;;;;;;;0.57;0.10;;;23.60;66.10;;;;;;6189606;23;20055;-79
2022/05/24 11:55:42;;;;;;;1.58;0.20;;;22.90;67.40;;;;;;6190322;23;20001;-79
2022/05/24 11:58:21;;;;;;;1.13;0.43;;;22.60;68.00;;;;;;6189897;23;20020;-80
2022/05/24 12:01:09;;;;;;;1.40;0.20;;;22.90;68.80;;;;;;6162486;23;20013;-80
2022/05/24 12:09:59;;;;;;;0.93;0.20;;;23.80;65.80;;;;;;6164553;23;20183;-79
2022/05/24 12:12:44;;;;;;;2.80;0.30;;;23.40;66.70;;;;;;6141286;23;19993;-77
2022/05/24 12:15:44;;;;;;;0.85;0.22;;;22.80;68.30;;;;;;6191014;23;20056;-76
2022/05/24 12:18:25;;;;;;;3.00;0.30;;;22.90;67.10;;;;;;6171952;23;20246;-79
2022/05/24 12:20:56;;;;;;;1.60;0.22;;;23.10;66.80;;;;;;6164555;23;20001;-79
2022/05/24 12:23:31;;;;;;;1.00;0.30;;;23.40;66.40;;;;;;6165506;23;20001;-78
2022/05/24 12:26:15;;;;;;;2.83;0.30;;;23.70;67.10;;;;;;6190592;23;20008;-79
2022/05/24 12:28:53;;;;;;;1.98;0.40;;;23.30;65.30;;;;;;6192727;23;20005;-81
2022/05/24 12:31:22;;;;;;;1.45;0.20;;;23.50;68.20;;;;;;6140792;23;20021;-82
2022/05/24 12:33:50;;;;;;;;;;;23.60;64.20;;;;;;6192967;23;20001;-79
2022/05/24 12:36:31;;;;;;;;;;;23.80;64.20;;;;;;6192222;23;19900;-79
2022/05/24 12:39:14;;;;;;;1.10;0.30;;;24.00;64.00;;;;;;6165673;23;19908;-80
2022/05/24 12:41:45;;;;;;;1.63;0.30;;;24.20;64.40;;;;;;6191658;23;20044;-80
2022/05/24 12:44:18;;;;;;;1.83;0.22;;;25.00;62.00;;;;;;6190837;23;20270;-79
2022/05/24 12:46:56;;;;;;;1.13;0.20;;;26.10;59.20;;;;;;6083320;23;20018;-81
2022/05/24 12:49:25;;;;;;;2.38;0.25;;;26.20;59.10;;;;;;6076643;23;20033;-82
2022/05/24 12:52:09;;;;;;;0.70;0.20;;;28.00;58.00;;;;;;6100365;23;20030;-80
2022/05/24 12:54:40;;;;;;;1.48;0.10;;;28.00;56.50;;;;;;6076795;23;20011;-81
2022/05/24 12:57:19;;;;;;;1.67;0.30;;;27.30;56.60;;;;;;6099676;23;20026;-79
2022/05/24 12:59:58;;;;;;;0.85;0.20;;;28.00;56.50;;;;;;6076656;23;20075;-81
2022/05/24 13:02:39;;;;;;;1.10;0.20;;;29.30;54.50;;;;;;6099734;23;20276;-79
2022/05/24 13:05:07;;;;;;;2.15;0.20;;;28.90;54.30;;;;;;6100501;23;20058;-79
2022/05/24 13:07:38;;;;;;;0.47;0.15;;;28.10;55.20;;;;;;6100929;23;20006;-80
2022/05/24 13:10:33;;;;;;;1.10;0.20;;;28.60;55.50;;;;;;6099910;23;20007;-82
2022/05/24 13:13:09;;;;;;;1.63;0.25;;;28.20;53.90;;;;;;6074483;23;20002;-78
2022/05/24 13:15:44;;;;;;;2.42;0.30;;;26.10;55.90;;;;;;6099793;23;20017;-78
2022/05/24 13:18:34;;;;;;;2.55;0.20;;;24.70;58.00;;;;;;6141382;23;20215;-80
2022/05/24 13:21:04;;;;;;;1.27;0.20;;;24.30;61.30;;;;;;6161258;23;20002;-79
2022/05/24 13:23:39;;;;;;;3.78;0.30;;;23.40;63.60;;;;;;6162138;23;20267;-79
2022/05/24 13:26:05;;;;;;;2.08;0.32;;;23.00;65.00;;;;;;6160878;23;20013;-78
2022/05/24 13:28:53;;;;;;;2.17;0.20;;;22.90;65.20;;;;;;6162428;23;20033;-79
2022/05/24 13:34:33;;;;;;;2.03;0.30;;;22.90;65.10;;;;;;6156063;23;20001;-79
2022/05/24 13:37:01;;;;;;;1.52;0.40;;;23.70;64.10;;;;;;6136618;23;20029;-81
2022/05/24 13:39:30;;;;;;;1.55;0.30;;;25.40;61.70;;;;;;6137859;23;20005;-80
2022/05/24 13:42:03;;;;;;;2.58;0.32;;;28.30;57.60;;;;;;6163208;23;20006;-80
2022/05/24 13:45:25;;;;;;;1.75;0.30;;;30.70;54.60;;;;;;6168486;23;20024;-79
2022/05/24 13:48:00;;;;;;;4.45;0.30;;;32.80;52.30;;;;;;6087982;23;20025;-80
2022/05/24 13:50:46;;;;;;;2.22;0.30;;;34.00;50.10;;;;;;6139421;23;20002;-80
2022/05/24 13:53:27;;;;;;;1.63;0.20;;;34.80;49.30;;;;;;6161781;23;20009;-81
2022/05/24 13:56:01;;;;;;;2.67;0.20;;;36.60;47.70;;;;;;6112727;23;20044;-80
2022/05/24 13:59:15;;;;;;;1.20;0.20;;;37.10;46.80;;;;;;6163278;23;20057;-81
2022/05/24 14:01:41;;;;;;;2.42;0.30;;;35.90;46.80;;;;;;6105464;23;20013;-80
2022/05/24 14:04:20;;;;;;;1.30;0.30;;;33.60;48.80;;;;;;6162496;23;20072;-81
2022/05/24 14:06:56;;;;;;;1.15;0.20;;;32.70;49.40;;;;;;6137226;23;20287;-81
2022/05/24 14:10:13;;;;;;;1.48;0.20;;;31.60;49.60;;;;;;6163413;23;20001;-81
2022/05/24 14:12:53;;;;;;;0.57;0.20;;;30.00;51.50;;;;;;6089689;23;20339;-80
2022/05/24 14:15:31;;;;;;;1.17;0.43;;;31.00;50.40;;;;;;6162939;23;20009;-80
2022/05/24 14:17:58;;;;;;;0.90;0.15;;;32.20;49.60;;;;;;6122019;23;20096;-80
2022/05/24 14:20:24;;;;;;;0.75;0.20;;;34.00;47.90;;;;;;6113152;23;20082;-80
2022/05/24 14:22:50;;;;;;;1.75;0.30;;;34.70;46.30;;;;;;6136988;23;20002;-80
2022/05/24 14:25:16;;;;;;;0.95;0.22;;;34.90;47.20;;;;;;6162617;23;20295;-80
2022/05/24 14:27:42;;;;;;;1.55;0.30;;;33.30;47.80;;;;;;6161550;23;20005;-80
2022/05/24 14:30:10;;;;;;;1.42;0.20;;;32.10;49.30;;;;;;6161962;23;20000;-79
2022/05/24 14:32:37;;;;;;;1.33;0.40;;;31.30;51.20;;;;;;6162823;23;20005;-80
2022/05/24 14:35:04;;;;;;;1.05;0.20;;;31.90;51.10;;;;;;6161935;23;20013;-80
2022/05/24 14:37:29;;;;;;;1.27;0.25;;;30.90;51.60;;;;;;6162628;23;20010;-80
2022/05/24 14:39:55;;;;;;;1.58;0.20;;;30.60;51.80;;;;;;6163068;23;20100;-80
2022/05/24 14:42:22;;;;;;;2.72;0.50;;;30.10;53.10;;;;;;6136065;23;20249;-80
2022/05/24 14:44:47;;;;;;;1.95;0.32;;;29.80;52.90;;;;;;6136814;23;20056;-80
2022/05/24 14:47:15;;;;;;;1.92;0.28;;;30.30;53.20;;;;;;6160960;23;20312;-81
2022/05/24 14:49:41;;;;;;;1.10;0.20;;;32.30;49.80;;;;;;6162664;23;20033;-79
2022/05/24 14:52:11;;;;;;;3.03;0.30;;;33.70;49.40;;;;;;6161558;23;20002;-80
2022/05/24 14:54:42;;;;;;;3.00;0.20;;;33.10;48.50;;;;;;6112040;23;20005;-81
2022/05/24 14:57:09;;;;;;;1.95;0.30;;;32.10;49.90;;;;;;6161431;23;20005;-79
2022/05/24 14:59:37;;;;;;;1.45;0.30;;;30.80;51.20;;;;;;6136005;23;20291;-80
2022/05/24 15:02:04;;;;;;;;;;;30.10;52.60;;;;;;6161972;23;20025;-78
2022/05/24 15:04:30;;;;;;;2.53;0.40;;;30.40;53.70;;;;;;6136217;23;20079;-80
2022/05/24 15:15:20;;;;;;;0.88;0.20;;;31.90;51.80;;;;;;6136291;23;20040;-81
2022/05/24 15:15:25;;;;;;;0.82;0.20;;;30.40;51.80;;;;;;6161797;23;20013;-80
2022/05/24 15:17:52;;;;;;;1.58;0.47;;;29.20;53.50;;;;;;6111966;23;20036;-79
2022/05/24 15:20:20;;;;;;;3.15;0.55;;;28.20;54.70;;;;;;6162041;23;20291;-79
2022/05/24 15:23:09;;;;;;;2.17;0.57;;;27.50;56.60;;;;;;6111741;23;20016;-80
2022/05/24 15:25:42;;;;;;;2.45;0.40;;;27.30;57.40;;;;;;6136954;23;20314;-81
2022/05/24 15:28:11;;;;;;;2.60;0.38;;;27.40;57.00;;;;;;6136191;23;20009;-79
2022/05/24 15:30:38;;;;;;;1.55;0.32;;;28.60;55.90;;;;;;6135799;23;20362;-80
2022/05/24 15:33:22;;;;;;;1.48;0.50;;;31.50;53.70;;;;;;6162249;23;20002;-81
2022/05/24 15:35:48;;;;;;;1.77;0.47;;;34.60;49.80;;;;;;6162814;23;20013;-81
2022/05/24 15:38:15;;;;;;;1.42;0.30;;;34.50;48.20;;;;;;6162310;23;19989;-80
2022/05/24 15:40:41;;;;;;;0.83;0.47;;;34.80;47.60;;;;;;6164324;23;20005;-82
2022/05/24 15:43:09;;;;;;;2.28;0.30;;;33.80;48.90;;;;;;6113977;23;20013;-80
2022/05/24 15:45:35;;;;;;;2.43;0.67;;;32.30;50.00;;;;;;6163834;23;20001;-81
2022/05/24 15:48:09;;;;;;;1.92;0.40;;;30.70;51.50;;;;;;6138629;23;20010;-80
2022/05/24 15:50:47;;;;;;;0.82;0.40;;;29.20;54.30;;;;;;6114768;23;20300;-81
2022/05/24 15:53:12;;;;;;;2.00;0.60;;;28.30;55.10;;;;;;6164749;23;20032;-79
2022/05/24 15:55:38;;;;;;;1.23;0.32;;;27.50;55.90;;;;;;6164905;23;20227;-81
2022/05/24 15:58:08;;;;;;;1.40;0.40;;;26.90;55.60;;;;;;6138072;23;20048;-81
2022/05/24 16:00:36;;;;;;;2.25;0.30;;;26.40;56.10;;;;;;6137663;23;20029;-80
2022/05/24 16:03:02;;;;;;;1.40;0.32;;;26.00;56.10;;;;;;6108125;23;20029;-80
2022/05/24 16:11:35;;;;;;;2.13;0.38;;;24.50;59.10;;;;;;6045657;23;20011;-82
2022/05/24 16:14:13;;;;;;;2.28;0.30;;;24.00;59.50;;;;;;6021539;23;20208;-81
2022/05/24 16:16:42;;;;;;;1.95;0.43;;;23.70;61.30;;;;;;6105008;23;20024;-81
2022/05/24 16:19:09;;;;;;;2.40;0.35;;;23.50;61.60;;;;;;6132942;23;20014;-81
2022/05/24 16:21:38;;;;;;;2.08;0.30;;;23.40;62.30;;;;;;6107765;23;20036;-80
2022/05/24 16:24:05;;;;;;;1.48;0.40;;;23.10;63.10;;;;;;6134470;23;20013;-80
2022/05/24 16:26:31;;;;;;;1.60;0.30;;;23.00;63.00;;;;;;6108361;23;20124;-80
2022/05/24 16:28:57;;;;;;;0.70;0.20;;;22.90;64.00;;;;;;6134993;23;20168;-80
2022/05/24 16:31:23;;;;;;;2.47;0.50;;;22.70;64.40;;;;;;6134222;23;20261;-80
2022/05/24 16:33:49;;;;;;;2.30;0.38;;;22.50;63.80;;;;;;6134962;23;20002;-79
2022/05/24 16:36:16;;;;;;;1.10;0.38;;;22.30;63.80;;;;;;6134688;23;20152;-80
2022/05/24 16:38:42;;;;;;;0.90;0.30;;;22.00;64.10;;;;;;6109024;23;20012;-80
2022/05/24 16:41:11;;;;;;;1.27;0.30;;;21.90;64.50;;;;;;6134690;23;19997;-79
2022/05/24 16:43:38;;;;;;;3.25;0.40;;;21.60;64.70;;;;;;6135076;23;20009;-79
2022/05/24 16:46:04;;;;;;;2.28;0.25;;;21.40;65.00;;;;;;6133119;23;20042;-83
2022/05/24 16:48:31;;;;;;;1.67;0.30;;;21.30;65.70;;;;;;6135409;23;20017;-79
2022/05/24 16:50:57;;;;;;;1.63;0.28;;;21.30;65.80;;;;;;6133357;23;19986;-78
2022/05/24 16:53:27;;;;;;;1.85;0.25;;;21.20;65.90;;;;;;6108701;23;20350;-80
2022/05/24 16:58:45;;;;;;;3.80;0.50;;;21.30;65.90;;;;;;6134958;23;20304;-79
2022/05/24 17:01:13;;;;;;;1.45;0.40;;;21.40;66.60;;;;;;6133501;23;20018;-78
2022/05/24 17:03:39;;;;;;;1.90;0.60;;;21.50;67.30;;;;;;6150509;23;20054;-80
2022/05/24 17:06:05;;;;;;;1.75;0.38;;;21.60;66.30;;;;;;6164137;23;20001;-80
2022/05/24 17:08:31;;;;;;;3.72;0.55;;;21.60;65.80;;;;;;6164339;23;20040;-81
2022/05/24 17:11:00;;;;;;;2.70;0.60;;;21.60;66.10;;;;;;6138435;23;20013;-80
2022/05/24 17:13:26;;;;;;;3.17;0.85;;;21.50;65.90;;;;;;6163571;23;20330;-79
2022/05/24 17:15:52;;;;;;;1.70;0.63;;;21.50;66.50;;;;;;6163402;23;20013;-79
2022/05/24 17:18:19;;;;;;;1.52;0.35;;;21.60;67.00;;;;;;6163305;23;20016;-80
2022/05/24 17:20:45;;;;;;;1.70;0.30;;;21.70;65.90;;;;;;6163883;23;20057;-81
2022/05/24 17:23:11;;;;;;;1.30;0.30;;;21.60;65.80;;;;;;6163663;23;20185;-79
2022/05/24 17:25:38;;;;;;;1.40;0.40;;;21.50;66.50;;;;;;6113293;23;20012;-79
2022/05/24 17:28:08;;;;;;;2.95;0.55;;;21.40;67.00;;;;;;6134997;23;20109;-79
2022/05/24 17:30:36;;;;;;;2.30;0.50;;;21.40;67.50;;;;;;6191560;23;20016;-80
2022/05/24 17:33:04;;;;;;;1.40;0.38;;;21.50;66.90;;;;;;6166926;23;20011;-79
2022/05/24 17:35:34;;;;;;;2.47;0.40;;;21.60;66.80;;;;;;6166693;23;20008;-79
2022/05/24 17:38:01;;;;;;;2.90;0.32;;;21.50;65.70;;;;;;6166976;23;20041;-82
2022/05/24 17:40:31;;;;;;;1.38;0.50;;;21.40;65.90;;;;;;6192195;23;20295;-80
2022/05/24 17:42:58;;;;;;;1.35;0.47;;;21.30;65.80;;;;;;6192727;23;20162;-79
2022/05/24 17:45:25;;;;;;;2.23;0.50;;;21.10;66.40;;;;;;6191535;23;20021;-79
2022/05/24 17:47:52;;;;;;;1.45;0.30;;;21.00;66.00;;;;;;6193245;23;20384;-80
2022/05/24 17:50:19;;;;;;;0.98;0.35;;;20.80;66.90;;;;;;6191546;23;20096;-78
2022/05/24 17:52:45;;;;;;;1.85;0.35;;;20.70;67.50;;;;;;6192378;23;20191;-79
2022/05/24 17:55:12;;;;;;;1.65;0.30;;;20.60;67.50;;;;;;6192183;23;20314;-80
2022/05/24 17:57:38;;;;;;;2.70;0.30;;;20.60;67.70;;;;;;6141852;23;20009;-79
2022/05/24 18:00:07;;;;;;;1.30;0.45;;;20.40;68.00;;;;;;6165773;23;20063;-78
2022/05/24 18:02:39;;;;;;;1.52;0.20;;;20.30;68.30;;;;;;6191721;23;20088;-81
2022/05/24 18:05:07;;;;;;;1.35;0.30;;;20.20;68.20;;;;;;6192397;23;20061;-80
2022/05/24 18:07:33;;;;;;;2.93;0.37;;;20.10;68.10;;;;;;6165506;23;20001;-81
2022/05/24 18:09:59;;;;;;;4.05;0.40;;;20.00;68.80;;;;;;6141361;23;20171;-82
2022/05/24 18:12:25;;;;;;;0.90;0.32;;;19.80;69.30;;;;;;6166195;23;20005;-82
2022/05/24 18:14:50;;;;;;;1.35;0.40;;;19.80;69.70;;;;;;6192428;23;20145;-82
2022/05/24 18:17:16;;;;;;;2.20;0.40;;;19.70;69.70;;;;;;6164860;23;20018;-82
2022/05/24 18:19:42;;;;;;;1.83;0.30;;;19.70;69.70;;;;;;6166712;23;20020;-83
2022/05/24 18:22:11;;;;;;;2.45;0.30;;;19.60;69.40;;;;;;6164794;23;20085;-81
2022/05/24 18:24:41;;;;;;;0.98;0.43;;;19.50;69.90;;;;;;6166656;23;20001;-82
2022/05/24 18:35:31;;;;;;;2.35;0.30;;;19.30;70.60;;;;;;6191444;23;20754;-81
2022/05/24 18:37:57;;;;;;;1.10;0.40;;;19.30;71.00;;;;;;6191931;23;20016;-80
2022/05/24 18:40:22;;;;;;;2.15;0.40;;;19.20;71.20;;;;;;6141049;23;20000;-80
2022/05/24 18:42:50;;;;;;;2.67;0.28;;;19.20;71.40;;;;;;6166344;23;20436;-80
2022/05/24 18:45:16;;;;;;;2.40;0.47;;;19.10;71.40;;;;;;6190682;23;20005;-80
2022/05/24 18:47:42;;;;;;;1.13;0.30;;;19.00;72.00;;;;;;6192428;23;20055;-80
2022/05/24 18:50:09;;;;;;;2.78;0.60;;;19.00;72.40;;;;;;6192363;23;19989;-83
2022/05/24 18:52:35;;;;;;;2.58;0.80;;;18.90;72.30;;;;;;6165883;23;20005;-81
2022/05/24 18:55:01;;;;;;;2.80;0.73;;;18.90;72.60;;;;;;6167222;23;20012;-80
2022/05/24 18:57:26;;;;;;;2.67;0.68;;;18.90;72.80;;;;;;6166561;23;20005;-81
2022/05/24 18:59:53;;;;;;;1.50;0.50;;;18.90;73.20;;;;;;6166764;23;20008;-81
2022/05/24 19:02:20;;;;;;;1.95;0.90;;;18.80;73.30;;;;;;6164567;23;20024;-79
2022/05/24 19:04:46;;;;;;;3.22;0.95;;;18.70;73.70;;;;;;6141491;23;20004;-80
2022/05/24 19:07:18;;;;;;;2.38;0.60;;;18.70;74.00;;;;;;6165465;23;20009;-80
2022/05/24 19:09:50;;;;;;;2.17;0.70;;;18.60;74.10;;;;;;6191864;23;20004;-80